Time;durP1;ratioP1;P1;durP2;ratioP2;P2;SDS_P1;SDS_P2;PMS_P1;PMS_P2;Temp;Humidity;BMP_temperature;BMP_pressure;BME280_temperature;BME280_humidity;BME280_pressure;Samples;Min_cycle;Max_cycle;Signal;HPM_P1;HPM_P2
2022/03/29 00:00:17;;;;;;;;;23.20;21.00;;;;;16.92;26.98;98291.53;6267221;27;97047;-68
2022/03/29 00:03:20;;;;;;;;;25.40;20.40;;;;;16.78;26.99;98289.41;6286277;27;96664;-67
2022/03/29 00:06:23;;;;;;;;;31.00;26.00;;;;;16.73;27.14;98283.97;6267846;27;98446;-68
2022/03/29 00:09:26;;;;;;;;;27.00;24.00;;;;;16.69;27.19;98272.03;6286146;27;97009;-67
2022/03/29 00:12:29;;;;;;;;;26.25;23.00;;;;;16.62;27.28;98271.47;6286661;27;96529;-68
2022/03/29 00:15:34;;;;;;;;;23.00;21.20;;;;;16.61;27.57;98263.59;6285512;27;96799;-68
2022/03/29 00:18:37;;;;;;;;;30.00;25.00;;;;;16.58;27.82;98259.50;6283008;27;96808;-68
2022/03/29 00:21:41;;;;;;;;;31.00;27.20;;;;;16.63;27.78;98258.69;6285914;27;97462;-67
2022/03/29 00:24:44;;;;;;;;;31.20;25.80;;;;;16.64;27.90;98252.97;6268141;27;97394;-69
2022/03/29 00:27:49;;;;;;;;;33.60;30.00;;;;;16.41;28.02;98204.56;6287000;27;96673;-68
2022/03/29 00:30:54;;;;;;;;;36.50;30.00;;;;;16.66;28.02;98233.66;6286846;27;96923;-68
2022/03/29 00:33:57;;;;;;;;;35.00;30.00;;;;;16.69;27.98;98231.19;6252958;27;99099;-68
2022/03/29 00:37:00;;;;;;;;;34.00;29.20;;;;;16.72;28.25;98229.81;6302304;27;96884;-68
2022/03/29 00:40:05;;;;;;;;;33.50;30.00;;;;;16.72;28.31;98237.97;6285546;27;98331;-68
2022/03/29 00:43:08;;;;;;;;;34.00;28.00;;;;;16.73;28.56;98226.00;6289472;27;96873;-68
2022/03/29 00:46:13;;;;;;;;;36.00;30.00;;;;;16.69;28.67;98219.50;6290824;27;97404;-69
2022/03/29 00:49:16;;;;;;;;;32.40;29.00;;;;;16.67;28.67;98205.31;6290944;27;97432;-68
2022/03/29 00:52:20;;;;;;;;;38.00;32.00;;;;;16.69;28.53;98211.31;6279835;27;97899;-68
2022/03/29 00:55:24;;;;;;;;;39.00;33.00;;;;;16.63;28.60;98207.78;6271386;27;96914;-67
2022/03/29 00:58:27;;;;;;;;;40.00;34.00;;;;;16.64;28.90;98219.50;6271341;27;96648;-68
2022/03/29 01:01:32;;;;;;;;;39.00;33.00;;;;;16.65;29.10;98238.28;6290021;27;97493;-67
2022/03/29 01:04:35;;;;;;;;;39.60;30.60;;;;;16.66;29.20;98230.94;6290686;27;96471;-68
2022/03/29 01:07:39;;;;;;;;;37.00;31.75;;;;;16.64;29.23;98231.19;6283853;27;96861;-68
2022/03/29 01:10:45;;;;;;;;;32.80;30.20;;;;;16.65;29.28;98226.56;6290382;27;97877;-68
2022/03/29 01:13:48;;;;;;;;;39.25;33.25;;;;;16.59;29.78;98231.22;6289880;27;96646;-68
2022/03/29 01:20:18;;;;;;;;;41.20;32.80;;;;;16.68;29.79;98215.94;6289987;27;96732;-67
2022/03/29 01:23:23;;;;;;;;;37.25;30.00;;;;;16.66;29.51;98222.78;6290062;27;97487;-68
2022/03/29 01:26:27;;;;;;;;;35.40;30.00;;;;;16.54;29.48;98216.78;6289135;27;96616;-68
2022/03/29 01:29:31;;;;;;;;;30.20;26.00;;;;;16.47;29.78;98212.44;6289791;27;97042;-67
2022/03/29 01:32:35;;;;;;;;;33.60;31.20;;;;;16.47;29.67;98228.75;6267209;27;98860;-68
2022/03/29 01:35:40;;;;;;;;;38.00;31.40;;;;;16.49;30.04;98217.59;6293052;27;96974;-67
2022/03/29 01:38:44;;;;;;;;;34.00;30.20;;;;;16.55;29.99;98210.25;6289300;27;97482;-67
2022/03/29 01:41:48;;;;;;;;;32.00;30.00;;;;;16.57;29.92;98210.78;6249890;27;96963;-67
2022/03/29 01:44:52;;;;;;;;;43.20;33.00;;;;;16.54;30.19;98200.44;6252604;27;97946;-67
2022/03/29 01:47:55;;;;;;;;;39.00;33.00;;;;;16.52;30.29;98202.66;6289709;27;96900;-67
2022/03/29 01:50:58;;;;;;;;;44.50;36.00;;;;;16.52;30.24;98200.72;6289228;27;97426;-67
2022/03/29 01:54:04;;;;;;;;;43.60;34.60;;;;;16.43;30.38;98196.94;6291495;27;96922;-68
2022/03/29 01:57:07;;;;;;;;;40.60;33.60;;;;;16.42;30.49;98182.50;6289583;27;96948;-67
2022/03/29 02:03:33;;;;;;;;;40.60;32.40;;;;;16.42;31.29;98182.50;6270373;27;97318;-66
2022/03/29 02:06:37;;;;;;;;;37.20;32.80;;;;;16.36;31.79;98190.97;6270760;27;97546;-67
2022/03/29 02:09:42;;;;;;;;;34.60;30.00;;;;;16.27;32.81;98187.19;6288858;27;97537;-67
2022/03/29 02:12:46;;;;;;;;;32.00;27.60;;;;;16.29;32.55;98182.28;6253187;27;98660;-67
2022/03/29 02:15:49;;;;;;;;;35.20;28.80;;;;;16.39;32.25;98180.34;6270092;27;99423;-67
2022/03/29 02:18:53;;;;;;;;;35.00;30.00;;;;;16.38;32.52;98167.84;6248791;27;98446;-67
2022/03/29 02:21:57;;;;;;;;;29.00;26.00;;;;;16.40;32.67;98179.28;6287555;27;96977;-67
2022/03/29 02:25:02;;;;;;;;;29.00;27.00;;;;;16.48;32.90;98175.16;6269025;27;96818;-67
2022/03/29 02:28:06;;;;;;;;;32.00;27.80;;;;;16.56;32.98;98181.94;6253478;27;97883;-67
2022/03/29 02:31:10;;;;;;;;;30.60;25.80;;;;;16.60;33.79;98169.44;6262338;27;96825;-68
2022/03/29 02:34:13;;;;;;;;;28.60;25.60;;;;;16.61;34.90;98171.09;6287079;27;98402;-67
2022/03/29 02:37:16;;;;;;;;;29.50;27.00;;;;;16.40;35.38;98149.34;6287603;27;97456;-67
2022/03/29 02:40:21;;;;;;;;;29.00;24.50;;;;;16.52;35.60;98180.88;6288869;27;97499;-66
2022/03/29 02:43:26;;;;;;;;;31.00;29.00;;;;;16.54;36.16;98182.22;6292521;27;97158;-68
2022/03/29 02:46:29;;;;;;;;;27.50;24.50;;;;;16.46;36.83;98182.81;6303316;27;97505;-68
2022/03/29 02:49:33;;;;;;;;;30.50;28.50;;;;;16.46;37.12;98190.97;6300557;27;97102;-68
2022/03/29 02:52:43;;;;;;;;;32.25;29.00;;;;;16.44;37.67;98193.94;6287746;27;96576;-68
2022/03/29 02:55:48;;;;;;;;;27.60;23.00;;;;;16.48;37.69;98181.41;6269718;27;98146;-68
2022/03/29 02:58:51;;;;;;;;;29.50;24.75;;;;;16.49;37.86;98176.78;6288761;27;96995;-68
2022/03/29 03:01:54;;;;;;;;;31.00;27.00;;;;;16.52;38.11;98181.66;6287617;27;96366;-68
2022/03/29 03:04:58;;;;;;;;;28.00;25.00;;;;;16.56;38.14;98166.44;6269011;27;97011;-68
2022/03/29 03:08:02;;;;;;;;;26.00;23.00;;;;;16.63;38.32;98168.88;6287514;27;96669;-68
2022/03/29 03:11:07;;;;;;;;;25.80;23.00;;;;;16.69;38.39;98167.78;6286722;27;96667;-68
2022/03/29 03:14:11;;;;;;;;;22.80;20.00;;;;;16.72;38.58;98172.66;6254523;27;98797;-68
2022/03/29 03:17:14;;;;;;;;;29.40;25.00;;;;;16.77;38.46;98167.19;6287439;27;96983;-68
2022/03/29 03:20:18;;;;;;;;;26.00;23.00;;;;;16.81;38.51;98160.91;6269177;27;96949;-68
2022/03/29 03:23:21;;;;;;;;;26.50;24.50;;;;;16.83;38.62;98160.63;6286343;27;96714;-67
2022/03/29 03:26:26;;;;;;;;;26.25;23.00;;;;;16.84;38.89;98159.53;6262397;27;96755;-68
2022/03/29 03:29:29;;;;;;;;;27.60;23.00;;;;;16.79;39.01;98144.06;6273799;27;97467;-68
2022/03/29 03:32:33;;;;;;;;;25.40;23.00;;;;;16.84;38.80;98154.91;6267447;27;97908;-68
2022/03/29 03:35:36;;;;;;;;;22.67;20.67;;;;;16.87;38.60;98150.81;6286894;27;97428;-68
2022/03/29 03:38:40;;;;;;;;;26.00;22.00;;;;;16.96;38.16;98146.41;6286889;27;97529;-68
2022/03/29 03:41:47;;;;;;;;;25.00;22.75;;;;;17.01;38.19;98140.09;6286753;27;97422;-67
2022/03/29 03:44:51;;;;;;;;;22.80;20.40;;;;;17.10;37.90;98143.91;6285983;27;96807;-67
2022/03/29 03:47:54;;;;;;;;;26.00;22.00;;;;;17.18;37.80;98151.47;6283300;27;96469;-67
2022/03/29 03:50:58;;;;;;;;;20.00;19.00;;;;;17.18;37.67;98148.72;6259082;27;96728;-68
2022/03/29 03:54:01;;;;;;;;;27.40;23.00;;;;;17.21;37.62;98146.25;6286438;27;97772;-68
2022/03/29 03:57:06;;;;;;;;;22.60;20.60;;;;;17.22;37.66;98138.91;6286598;27;97052;-68
2022/03/29 04:00:11;;;;;;;;;25.20;22.60;;;;;17.21;37.77;98140.00;6286163;27;96577;-68
2022/03/29 04:03:14;;;;;;;;;22.00;19.00;;;;;17.27;37.70;98131.50;6295140;27;97406;-68
2022/03/29 04:06:18;;;;;;;;;19.60;18.00;;;;;17.32;37.66;98115.13;6274466;27;97406;-68
2022/03/29 04:09:21;;;;;;;;;22.00;19.60;;;;;17.42;37.25;98127.03;6288976;27;96790;-68
2022/03/29 04:12:27;;;;;;;;;22.00;20.75;;;;;17.46;37.19;98122.66;6271567;27;98525;-68
2022/03/29 04:15:31;;;;;;;;;22.00;20.00;;;;;17.46;37.29;98120.72;6271854;27;97708;-68
2022/03/29 04:18:34;;;;;;;;;22.00;21.00;;;;;17.46;37.24;98114.47;6268806;27;97488;-68
2022/03/29 04:21:37;;;;;;;;;20.00;19.00;;;;;17.41;37.21;98107.16;6278164;27;97280;-68
2022/03/29 04:24:40;;;;;;;;;21.40;18.40;;;;;17.43;37.46;98113.13;6286050;27;97404;-67
2022/03/29 04:27:45;;;;;;;;;20.60;19.00;;;;;17.45;37.48;98108.19;6292569;27;97467;-67
2022/03/29 04:30:48;;;;;;;;;21.00;18.50;;;;;17.44;37.48;98101.16;6280888;27;97341;-66
2022/03/29 04:33:51;;;;;;;;;20.00;18.00;;;;;17.43;37.58;98101.44;6269458;27;99227;-67
2022/03/29 04:36:55;;;;;;;;;21.00;18.00;;;;;17.34;37.60;98090.34;6270840;27;96684;-68
2022/03/29 04:39:58;;;;;;;;;20.80;18.40;;;;;17.44;37.80;98101.16;6269672;27;96692;-69
2022/03/29 04:43:03;;;;;;;;;19.60;18.00;;;;;17.45;37.84;98115.56;6278856;27;96662;-68
2022/03/29 04:46:07;;;;;;;;;23.60;19.00;;;;;17.46;37.82;98120.72;6270627;27;97354;-68
2022/03/29 04:49:10;;;;;;;;;24.00;21.40;;;;;17.47;37.77;98119.66;6270350;27;97588;-67
2022/03/29 04:52:13;;;;;;;;;20.00;17.60;;;;;17.42;37.83;98116.13;6287367;27;96694;-67
2022/03/29 04:55:18;;;;;;;;;20.20;17.00;;;;;17.45;37.79;98110.09;6288553;27;97181;-68
2022/03/29 04:58:24;;;;;;;;;23.40;21.60;;;;;17.37;38.02;98105.28;6280487;27;97147;-68
2022/03/29 05:01:27;;;;;;;;;20.40;19.00;;;;;17.30;38.19;98106.41;6250955;27;97196;-68
2022/03/29 05:04:30;;;;;;;;;22.00;20.00;;;;;17.33;38.20;98100.41;6296407;27;97441;-67
2022/03/29 05:07:34;;;;;;;;;20.80;19.20;;;;;17.35;38.33;98105.56;6296296;27;96829;-68
2022/03/29 05:10:37;;;;;;;;;22.00;19.00;;;;;17.43;37.98;98104.97;6290557;27;97419;-67
2022/03/29 05:13:42;;;;;;;;;21.60;20.00;;;;;17.45;38.16;98104.66;6282202;27;97884;-68
2022/03/29 05:16:45;;;;;;;;;21.40;19.40;;;;;17.34;38.46;98106.69;6282594;27;97535;-67
2022/03/29 05:19:48;;;;;;;;;21.60;20.00;;;;;17.36;38.42;98112.63;6255955;27;97318;-68
2022/03/29 05:22:53;;;;;;;;;24.00;23.00;;;;;17.29;38.28;98098.53;6264130;27;99477;-68
2022/03/29 05:25:56;;;;;;;;;22.00;20.00;;;;;17.37;38.14;98125.16;6285268;27;96550;-68
2022/03/29 05:29:02;;;;;;;;;27.40;23.60;;;;;17.29;38.40;98112.16;6285453;27;97681;-67
2022/03/29 05:32:07;;;;;;;;;25.00;21.00;;;;;17.35;38.34;98111.00;6254995;27;98232;-67
2022/03/29 05:35:12;;;;;;;;;21.00;19.40;;;;;17.41;38.52;98107.16;6267392;27;97457;-68
2022/03/29 05:38:16;;;;;;;;;23.50;21.50;;;;;17.50;38.46;98116.34;6251130;27;97292;-68
2022/03/29 05:41:20;;;;;;;;;24.50;22.50;;;;;17.58;38.22;98121.19;6255772;27;99471;-68
2022/03/29 05:44:25;;;;;;;;;23.50;21.00;;;;;17.63;38.33;98114.91;6285786;27;97403;-68
2022/03/29 05:50:49;;;;;;;;;26.20;23.00;;;;;17.72;38.24;98108.56;6288017;27;96601;-67
2022/03/29 05:53:52;;;;;;;;;22.60;20.60;;;;;17.80;38.20;98119.94;6287399;27;97482;-67
2022/03/29 05:56:56;;;;;;;;;22.60;21.60;;;;;17.77;38.18;98115.06;6289859;27;97496;-67
2022/03/29 06:00:00;;;;;;;;;28.00;25.00;;;;;17.80;38.25;98123.47;6253689;27;99458;-67
2022/03/29 06:03:04;;;;;;;;;29.60;24.00;;;;;17.89;38.12;98123.66;6289046;27;98073;-67
2022/03/29 06:06:07;;;;;;;;;26.00;23.00;;;;;17.97;38.01;98123.06;6289114;27;96968;-67
2022/03/29 06:09:14;;;;;;;;;25.40;23.00;;;;;18.08;37.93;98122.63;6287221;27;96573;-67
2022/03/29 06:12:21;;;;;;;;;26.80;24.40;;;;;18.08;38.00;98125.38;6253976;27;98414;-68
2022/03/29 06:15:26;;;;;;;;;27.00;23.20;;;;;18.23;37.71;98129.84;6288289;27;96521;-67
2022/03/29 06:18:30;;;;;;;;;32.00;27.00;;;;;18.14;37.58;98123.41;6289059;27;96361;-68
2022/03/29 06:21:35;;;;;;;;;30.60;28.60;;;;;18.21;37.99;98126.63;6252747;27;98458;-67
2022/03/29 06:24:40;;;;;;;;;29.25;27.25;;;;;18.21;37.91;98132.06;6288358;27;97467;-68
2022/03/29 06:27:44;;;;;;;;;31.00;26.75;;;;;18.35;38.08;98119.34;6269593;27;99766;-68
2022/03/29 06:30:49;;;;;;;;;31.00;27.40;;;;;18.40;37.87;98113.03;6287016;27;97112;-67
2022/03/29 06:33:52;;;;;;;;;33.40;27.60;;;;;18.48;37.79;98115.91;6253221;27;96956;-67
2022/03/29 06:36:56;;;;;;;;;35.40;30.00;;;;;18.43;37.96;98115.16;6270357;27;96704;-67
2022/03/29 06:39:59;;;;;;;;;30.60;26.40;;;;;18.41;37.90;98112.75;6287835;27;96275;-67
2022/03/29 06:43:03;;;;;;;;;29.50;27.00;;;;;18.32;37.92;98117.22;6269718;27;96976;-67
2022/03/29 06:46:09;;;;;;;;;31.00;29.00;;;;;18.20;37.65;98119.53;6271303;27;96973;-67
2022/03/29 06:49:12;;;;;;;;;33.67;29.67;;;;;18.33;38.00;98129.75;6289041;27;96217;-68
2022/03/29 06:52:16;;;;;;;;;30.40;28.00;;;;;18.39;37.80;98136.78;6288874;27;96421;-67
2022/03/29 06:55:21;;;;;;;;;36.20;29.80;;;;;18.32;37.64;98147.25;6287878;27;96574;-67
2022/03/29 06:58:24;;;;;;;;;36.00;30.00;;;;;18.26;37.84;98162.03;6269621;27;99699;-68
2022/03/29 07:01:29;;;;;;;;;34.00;29.00;;;;;18.07;38.98;98181.03;6269078;27;96600;-68
2022/03/29 07:04:32;;;;;;;;;29.00;26.40;;;;;17.91;40.61;98179.53;6288324;27;97416;-67
2022/03/29 07:07:36;;;;;;;;;31.75;28.00;;;;;17.80;41.98;98190.81;6269468;27;98014;-67
2022/03/29 07:14:00;;;;;;;;;28.00;24.00;;;;;17.41;43.79;98174.44;6269320;27;96840;-67
2022/03/29 07:17:10;;;;;;;;;25.00;22.00;;;;;17.21;44.83;98176.22;6275034;27;97560;-67
2022/03/29 07:20:15;;;;;;;;;22.40;19.60;;;;;17.20;45.24;98158.22;6269061;27;97785;-68
2022/03/29 07:23:19;;;;;;;;;23.00;19.00;;;;;17.16;45.35;98145.47;6287297;27;97549;-68
2022/03/29 07:26:22;;;;;;;;;22.00;19.00;;;;;17.19;45.83;98148.47;6287668;27;96359;-67
2022/03/29 07:29:26;;;;;;;;;25.40;21.00;;;;;17.20;46.06;98149.28;6269028;27;98406;-67
2022/03/29 07:32:31;;;;;;;;;20.00;19.00;;;;;17.23;46.06;98149.50;6286952;27;96639;-67
2022/03/29 07:35:35;;;;;;;;;23.00;21.00;;;;;17.29;45.68;98150.31;6269136;27;96540;-67
2022/03/29 07:38:38;;;;;;;;;25.00;21.00;;;;;17.45;45.97;98142.81;6287250;27;96883;-67
2022/03/29 07:41:41;;;;;;;;;23.00;20.50;;;;;17.49;46.32;98146.63;6268656;27;96863;-67
2022/03/29 07:44:45;;;;;;;;;27.40;24.40;;;;;17.60;45.97;98145.44;6263869;27;96735;-68
2022/03/29 07:47:52;;;;;;;;;21.00;18.60;;;;;17.49;45.80;98143.91;6264838;27;96533;-66
2022/03/29 07:51:16;;;;;;;;;25.00;20.00;;;;;17.61;45.50;98152.53;6265827;27;97419;-67
2022/03/29 07:54:20;;;;;;;;;25.40;21.00;;;;;17.57;45.47;98146.00;6248035;27;96886;-67
2022/03/29 07:57:24;;;;;;;;;23.20;20.60;;;;;17.53;45.69;98156.66;6308703;27;96971;-69
2022/03/29 08:00:50;;;;;;;;;25.80;22.00;;;;;17.44;45.76;98165.72;6278624;27;97224;-68
2022/03/29 08:03:55;;;;;;;;;27.50;21.00;;;;;17.26;46.63;98159.03;6302634;27;96308;-66
2022/03/29 08:06:59;;;;;;;;;27.00;25.00;;;;;17.26;46.44;98151.66;6272915;27;98210;-67
2022/03/29 08:10:03;;;;;;;;;26.25;23.00;;;;;17.29;46.61;98166.66;6256080;27;98437;-67
2022/03/29 08:13:08;;;;;;;;;29.50;23.50;;;;;17.06;45.91;98150.97;6273017;27;97079;-67
2022/03/29 08:16:11;;;;;;;;;22.40;20.40;;;;;17.12;45.87;98163.47;6291041;27;97352;-67
2022/03/29 08:19:16;;;;;;;;;23.60;20.80;;;;;17.22;45.94;98160.69;6290848;27;96865;-68
2022/03/29 08:22:20;;;;;;;;;24.80;20.80;;;;;17.28;45.64;98148.66;6290741;27;97507;-67
2022/03/29 08:25:23;;;;;;;;;19.20;17.60;;;;;17.32;44.87;98142.38;6255644;27;96797;-66
2022/03/29 08:28:27;;;;;;;;;21.20;17.60;;;;;17.49;44.63;98119.38;6272232;27;99569;-67
2022/03/29 08:31:30;;;;;;;;;20.25;17.75;;;;;17.71;44.19;98122.47;6272337;27;97816;-67
2022/03/29 08:34:35;;;;;;;;;20.40;18.00;;;;;17.92;44.19;98106.75;6290915;27;96878;-67
2022/03/29 08:37:39;;;;;;;;;20.75;17.00;;;;;18.34;42.88;98122.38;6271771;27;96736;-67
2022/03/29 08:40:45;;;;;;;;;18.40;18.40;;;;;18.70;43.25;98122.78;6290720;27;96872;-67
2022/03/29 08:43:49;;;;;;;;;20.00;16.00;;;;;18.85;41.04;98131.59;6290130;27;96705;-67
2022/03/29 08:46:53;;;;;;;;;18.20;16.80;;;;;18.98;41.00;98122.69;6285101;27;96508;-67
2022/03/29 08:49:58;;;;;;;;;18.50;15.00;;;;;19.00;40.54;98115.00;6253325;27;98827;-68
2022/03/29 08:53:01;;;;;;;;;18.80;14.80;;;;;19.26;39.55;98131.00;6271252;27;97111;-67
2022/03/29 08:56:05;;;;;;;;;18.60;16.40;;;;;19.54;39.68;98143.75;6288034;27;97468;-67
2022/03/29 08:59:08;;;;;;;;;17.00;15.20;;;;;19.69;38.60;98135.28;6289047;27;96588;-68
2022/03/29 09:02:13;;;;;;;;;20.60;18.60;;;;;19.81;37.64;98132.06;6261375;27;96853;-67
2022/03/29 09:05:23;;;;;;;;;20.00;18.20;;;;;19.94;37.83;98133.25;6247320;27;97395;-68
2022/03/29 09:08:26;;;;;;;;;22.00;18.50;;;;;20.14;37.32;98127.38;6265228;27;97459;-67
2022/03/29 09:11:40;;;;;;;;;23.40;22.00;;;;;20.59;36.99;98121.03;6291551;27;97111;-67
2022/03/29 09:14:52;;;;;;;;;23.00;19.50;;;;;20.85;37.20;98123.25;6250934;27;96688;-68
2022/03/29 09:18:08;;;;;;;;;26.40;24.80;;;;;20.88;36.22;98119.88;6280261;27;97065;-68
2022/03/29 09:21:16;;;;;;;;;26.40;24.40;;;;;20.97;36.39;98116.13;6246425;27;96536;-68
2022/03/29 09:24:20;;;;;;;;;26.60;24.00;;;;;21.02;36.12;98113.25;6246190;27;98433;-68
2022/03/29 09:27:23;;;;;;;;;26.00;22.60;;;;;;;;6275223;27;97475;-67
2022/03/29 09:30:49;;;;;;;;;32.60;25.60;;;;;21.23;35.55;98113.66;6262464;27;97136;-67
2022/03/29 09:33:52;;;;;;;;;32.00;26.40;;;;;21.39;35.03;98097.66;6296760;27;97091;-67
2022/03/29 09:36:57;;;;;;;;;30.40;25.00;;;;;21.58;35.21;98090.88;6280848;27;98461;-67
2022/03/29 09:40:00;;;;;;;;;32.60;28.80;;;;;21.84;33.42;98098.47;6288600;27;97482;-72
2022/03/29 09:43:22;;;;;;;;;30.60;28.00;;;;;21.99;33.76;98092.59;6271807;27;97423;-64
2022/03/29 09:46:25;;;;;;;;;31.60;28.00;;;;;22.05;38.49;98094.06;6288536;27;97475;-67
2022/03/29 09:49:30;;;;;;;;;29.00;25.20;;;;;22.06;34.59;98094.88;6285770;27;96488;-70
2022/03/29 09:52:37;;;;;;;;;27.40;25.60;;;;;22.23;33.09;98090.28;6252280;27;99426;-66
2022/03/29 09:55:41;;;;;;;;;27.00;25.40;;;;;22.25;33.08;98081.72;6286037;27;96572;-68
2022/03/29 09:58:45;;;;;;;;;25.00;22.60;;;;;22.44;32.51;98085.00;6278880;27;96821;-68
2022/03/29 10:01:53;;;;;;;;;24.00;22.00;;;;;22.62;32.87;98085.91;6268811;27;97515;-69
2022/03/29 10:04:57;;;;;;;;;31.00;26.00;;;;;22.82;33.70;98077.88;6268824;27;97071;-68
2022/03/29 10:11:28;;;;;;;;;28.60;24.60;;;;;23.32;32.62;98077.41;6269886;27;98879;-66
2022/03/29 10:14:32;;;;;;;;;25.00;24.00;;;;;23.37;31.29;98073.69;6287825;27;97307;-69
2022/03/29 10:17:40;;;;;;;;;28.00;25.50;;;;;23.48;30.82;98069.50;6297895;27;96505;-66
2022/03/29 10:20:45;;;;;;;;;28.00;26.00;;;;;23.21;30.77;98041.19;6282246;27;96822;-70
2022/03/29 10:23:50;;;;;;;;;32.00;28.00;;;;;23.26;30.80;98024.50;6260401;27;99807;-69
2022/03/29 10:26:55;;;;;;;;;30.40;27.00;;;;;23.09;30.73;98012.72;6295969;27;96687;-70
2022/03/29 10:29:59;;;;;;;;;26.00;24.60;;;;;23.10;31.19;98058.34;6285859;27;96693;-71
2022/03/29 10:33:19;;;;;;;;;32.00;27.00;;;;;22.98;31.50;98058.97;6289526;27;97136;-70
2022/03/29 10:36:22;;;;;;;;;30.40;26.00;;;;;22.88;31.51;98062.03;6279269;27;96657;-70
2022/03/29 10:39:41;;;;;;;;;27.60;25.00;;;;;22.60;31.70;98038.69;6285700;27;96970;-70
2022/03/29 10:42:45;;;;;;;;;28.00;28.00;;;;;22.76;31.94;98037.94;6286530;27;97104;-70
2022/03/29 10:45:48;;;;;;;;;31.00;26.50;;;;;22.51;31.81;97996.66;6285691;27;97157;-71
2022/03/29 10:49:20;;;;;;;;;33.00;27.00;;;;;22.71;31.77;98023.56;6293162;27;97630;-71
2022/03/29 10:52:38;;;;;;;;;32.75;26.50;;;;;22.66;32.43;98005.25;6273946;27;97462;-71
2022/03/29 10:55:43;;;;;;;;;33.20;28.20;;;;;22.75;32.39;98027.28;6273681;27;97142;-71
2022/03/29 10:59:10;;;;;;;;;30.00;26.50;;;;;22.50;32.46;98023.31;6285970;27;96809;-70
2022/03/29 11:02:15;;;;;;;;;32.60;28.00;;;;;22.46;32.51;98003.13;6267707;27;96861;-70
2022/03/29 11:05:19;;;;;;;;;31.00;26.60;;;;;22.46;32.75;98012.19;6286590;27;96942;-69
2022/03/29 11:08:22;;;;;;;;;30.50;26.75;;;;;22.16;32.34;97969.13;6290286;27;97486;-69
2022/03/29 11:11:43;;;;;;;;;31.20;26.20;;;;;21.98;32.19;97935.34;6278324;27;97482;-69
2022/03/29 11:14:46;;;;;;;;;32.00;28.20;;;;;22.40;32.32;97998.91;6288697;27;97576;-69
2022/03/29 11:17:49;;;;;;;;;29.00;26.50;;;;;22.21;32.75;97952.50;6272852;27;99513;-69
2022/03/29 11:20:56;;;;;;;;;32.00;28.00;;;;;22.44;31.86;97988.88;6268277;27;97662;-70
2022/03/29 11:24:01;;;;;;;;;33.00;26.80;;;;;22.55;32.22;97979.22;6284858;27;97398;-69
2022/03/29 11:27:07;;;;;;;;;29.75;27.00;;;;;22.49;32.07;97986.00;6289596;27;97591;-70
2022/03/29 11:30:12;;;;;;;;;32.60;30.00;;;;;22.39;32.59;97987.09;6271142;27;98526;-69
2022/03/29 11:33:17;;;;;;;;;35.00;30.00;;;;;22.36;32.74;97984.19;6256557;27;97161;-70
2022/03/29 11:36:22;;;;;;;;;34.00;30.00;;;;;22.41;32.24;97967.56;6268508;27;97187;-70
2022/03/29 11:39:28;;;;;;;;;28.00;26.50;;;;;22.45;32.48;97971.28;6274528;27;97483;-69
2022/03/29 11:42:45;;;;;;;;;29.60;27.60;;;;;22.38;32.41;97971.75;6284173;27;96663;-69
2022/03/29 11:45:48;;;;;;;;;29.00;27.60;;;;;22.49;32.68;97966.75;6288922;27;97350;-69
2022/03/29 11:48:53;;;;;;;;;31.80;28.00;;;;;22.22;32.69;97904.72;6266310;27;98308;-69
2022/03/29 11:52:08;;;;;;;;;30.50;28.00;;;;;22.25;32.16;97911.50;6287819;27;97632;-69
2022/03/29 11:55:16;;;;;;;;;30.60;26.00;;;;;22.59;32.25;97938.16;6288647;27;97597;-69
2022/03/29 11:58:25;;;;;;;;;28.60;27.00;;;;;22.75;32.11;97955.84;6280445;27;97971;-69
2022/03/29 12:01:31;;;;;;;;;27.75;25.00;;;;;22.76;31.69;97947.28;6268762;27;97924;-69
2022/03/29 12:04:34;;;;;;;;;33.00;27.40;;;;;22.69;31.45;97952.41;6285263;27;98177;-69
2022/03/29 12:07:42;;;;;;;;;29.00;25.40;;;;;22.57;31.68;97945.94;6273747;27;97717;-69
2022/03/29 12:10:45;;;;;;;;;31.00;25.60;;;;;22.21;31.64;97933.28;6268801;27;97621;-68
2022/03/29 12:14:01;;;;;;;;;27.00;24.00;;;;;22.30;31.82;97944.28;6268640;27;96747;-69
2022/03/29 12:17:08;;;;;;;;;28.20;23.40;;;;;22.19;32.04;97942.97;6286311;27;97707;-69
2022/03/29 12:20:11;;;;;;;;;27.40;24.00;;;;;22.19;32.15;97923.75;6284516;27;97535;-69
2022/03/29 12:23:19;;;;;;;;;29.00;24.00;;;;;22.21;32.19;97919.56;6287526;27;97398;-69
2022/03/29 12:26:22;;;;;;;;;27.50;24.50;;;;;22.16;31.95;97911.47;6283249;27;96685;-69
2022/03/29 12:29:28;;;;;;;;;24.00;22.60;;;;;22.28;31.85;97925.41;6277366;27;97172;-69
2022/03/29 12:32:32;;;;;;;;;30.00;25.25;;;;;22.22;31.66;97909.41;6290756;27;96502;-69
2022/03/29 12:35:35;;;;;;;;;30.00;26.00;;;;;22.24;31.94;97916.16;6273178;27;97783;-69
2022/03/29 12:38:47;;;;;;;;;28.00;25.00;;;;;22.13;32.11;97911.31;6286482;27;97455;-69
2022/03/29 12:41:52;;;;;;;;;32.00;27.80;;;;;22.06;31.86;97900.81;6290085;27;97554;-69
2022/03/29 12:45:00;;;;;;;;;33.20;29.80;;;;;21.94;32.00;97890.44;6246737;27;97414;-69
2022/03/29 12:48:07;;;;;;;;;32.25;30.00;;;;;21.92;32.31;97902.84;6260699;27;96755;-69
2022/03/29 12:51:10;;;;;;;;;32.00;27.60;;;;;21.94;32.43;97901.41;6266085;27;97451;-69
2022/03/29 12:54:14;;;;;;;;;34.00;29.00;;;;;21.89;32.94;97901.53;6261967;27;97471;-69
2022/03/29 12:57:19;;;;;;;;;36.20;31.00;;;;;21.64;32.68;97874.03;6262399;27;97331;-69
2022/03/29 13:00:24;;;;;;;;;33.80;28.20;;;;;21.77;32.89;97879.41;6265576;27;96986;-69
2022/03/29 13:03:27;;;;;;;;;33.40;28.40;;;;;21.90;32.78;97875.72;6247702;27;96993;-69
2022/03/29 13:06:43;;;;;;;;;35.00;31.00;;;;;21.92;32.54;97878.97;6242133;27;98260;-69
2022/03/29 13:10:00;;;;;;;;;31.80;29.80;;;;;21.75;32.51;97872.59;6256418;27;97371;-69
2022/03/29 13:13:22;;;;;;;;;35.25;31.25;;;;;21.51;33.07;97849.16;6260669;27;97189;-69
2022/03/29 13:16:28;;;;;;;;;35.40;30.40;;;;;21.51;32.89;97859.31;6243657;27;97364;-69
2022/03/29 13:19:31;;;;;;;;;33.60;29.60;;;;;21.73;32.74;97875.69;6263984;27;97470;-69
2022/03/29 13:22:45;;;;;;;;;34.00;28.20;;;;;22.03;32.68;97868.53;6264515;27;96920;-69
2022/03/29 13:25:48;;;;;;;;;33.00;30.00;;;;;21.90;32.40;97858.44;6264636;27;97388;-69
2022/03/29 13:28:53;;;;;;;;;35.20;30.00;;;;;21.92;32.20;97861.69;6260042;27;97551;-70
2022/03/29 13:31:57;;;;;;;;;30.00;26.60;;;;;21.86;32.29;97860.22;6242959;27;98559;-70
2022/03/29 13:35:01;;;;;;;;;35.75;30.00;;;;;21.99;32.77;97859.31;6270398;27;96785;-70
2022/03/29 13:38:05;;;;;;;;;32.40;27.40;;;;;21.67;31.99;97791.09;6255487;27;96903;-69
2022/03/29 13:41:10;;;;;;;;;34.80;31.00;;;;;22.12;31.63;97846.56;6260839;27;96855;-69
2022/03/29 13:44:13;;;;;;;;;31.00;27.60;;;;;22.20;31.71;97848.50;6263369;27;97098;-69
2022/03/29 13:47:18;;;;;;;;;32.00;28.00;;;;;22.16;31.31;97842.03;6264957;27;96532;-69
2022/03/29 13:50:21;;;;;;;;;31.00;28.25;;;;;22.12;31.08;97841.09;6263800;27;97286;-69
2022/03/29 13:53:25;;;;;;;;;32.40;28.00;;;;;22.00;31.43;97838.97;6264311;27;96458;-69
2022/03/29 13:56:31;;;;;;;;;28.20;25.00;;;;;21.97;31.00;97825.88;6265846;27;97542;-69
2022/03/29 13:59:34;;;;;;;;;32.00;28.50;;;;;21.94;30.83;97826.53;6264351;27;97198;-68
2022/03/29 14:02:39;;;;;;;;;31.00;24.40;;;;;21.73;30.71;97820.81;6263374;27;97372;-69
2022/03/29 14:05:44;;;;;;;;;33.40;30.00;;;;;21.82;30.92;97829.88;6261958;27;97373;-70
2022/03/29 14:08:48;;;;;;;;;31.00;26.00;;;;;21.88;31.04;97822.31;6247108;27;99597;-69
2022/03/29 14:11:52;;;;;;;;;31.00;28.50;;;;;21.96;31.12;97818.78;6271978;27;97367;-69
2022/03/29 14:14:55;;;;;;;;;31.00;27.00;;;;;22.00;31.24;97808.78;6264031;27;97417;-68
2022/03/29 14:18:00;;;;;;;;;28.00;25.60;;;;;21.95;30.86;97806.19;6264742;27;97103;-70
2022/03/29 14:21:03;;;;;;;;;30.25;27.75;;;;;21.90;30.49;97809.06;6266720;27;97113;-69
2022/03/29 14:24:07;;;;;;;;;27.60;26.00;;;;;21.86;31.34;97797.09;6281909;27;97451;-69
2022/03/29 14:27:11;;;;;;;;;33.40;28.00;;;;;21.77;31.14;97801.78;6261680;27;97801;-69